Time;durP1;ratioP1;P1;durP2;ratioP2;P2;SDS_P1;SDS_P2;PMS_P1;PMS_P2;Temp;Humidity;BMP_temperature;BMP_pressure;BME280_temperature;BME280_humidity;BME280_pressure;Samples;Min_cycle;Max_cycle;Signal;HPM_P1;HPM_P2
2023/09/15 00:00:17;;;;;;;19.10;16.15;;;;;;;11.79;100.00;101765.13;5133016;28;20503;-84
2023/09/15 00:02:43;;;;;;;18.00;15.98;;;;;;;11.71;100.00;101758.06;5133688;28;20018;-85
2023/09/15 00:08:30;;;;;;;17.20;15.25;;;;;;;11.59;100.00;101740.91;5133906;28;20066;-84
2023/09/15 00:10:55;;;;;;;18.38;14.13;;;;;;;11.67;100.00;101758.66;5132896;28;20066;-84
2023/09/15 00:13:21;;;;;;;16.13;14.27;;;;;;;11.66;100.00;101751.66;5133704;28;20030;-84
2023/09/15 00:15:50;;;;;;;16.00;14.30;;;;;;;11.67;100.00;101750.63;5133589;28;20285;-86
2023/09/15 00:21:38;;;;;;;14.50;12.20;;;;;;;11.58;100.00;101749.13;5133611;28;20038;-83
2023/09/15 00:24:05;;;;;;;13.45;12.05;;;;;;;11.58;100.00;101752.66;5132730;28;20038;-83
2023/09/15 00:26:32;;;;;;;16.50;14.52;;;;;;;11.56;100.00;101735.91;5132521;27;20125;-83
2023/09/15 00:28:59;;;;;;;17.80;15.20;;;;;;;11.57;100.00;101739.44;5132224;28;20058;-82
2023/09/15 00:31:27;;;;;;;19.52;15.77;;;;;;;11.49;100.00;101746.59;5133352;28;20035;-83
2023/09/15 00:33:52;;;;;;;20.60;15.07;;;;;;;11.35;100.00;101728.81;5114542;28;20175;-82
2023/09/15 00:39:39;;;;;;;14.85;13.13;;;;;;;11.36;100.00;101735.00;5133492;28;20394;-82
2023/09/15 00:42:04;;;;;;;17.70;14.73;;;;;;;11.32;100.00;101737.25;5132327;28;20114;-83
2023/09/15 00:44:30;;;;;;;17.42;15.18;;;;;;;11.19;100.00;101718.41;5134419;28;20277;-85
2023/09/15 00:46:55;;;;;;;17.60;14.60;;;;;;;11.15;100.00;101731.38;5132073;28;20074;-85
2023/09/15 00:49:20;;;;;;;19.00;14.40;;;;;;;11.13;100.00;101737.94;5133111;28;20092;-83
2023/09/15 00:51:48;;;;;;;14.23;12.73;;;;;;;11.11;100.00;101738.13;5132652;28;20069;-84
2023/09/15 00:54:13;;;;;;;16.13;12.40;;;;;;;11.06;100.00;101727.19;5114434;28;20468;-84
2023/09/15 00:56:39;;;;;;;15.98;13.18;;;;;;;11.02;100.00;101733.97;5132790;28;20058;-83
2023/09/15 00:59:05;;;;;;;14.30;12.63;;;;;;;10.97;100.00;101736.38;5132171;28;20039;-83
2023/09/15 01:01:31;;;;;;;15.15;12.60;;;;;;;10.96;100.00;101731.22;5132686;28;20023;-83
2023/09/15 01:03:56;;;;;;;18.30;13.52;;;;;;;10.92;100.00;101721.94;5132273;28;20618;-84
2023/09/15 01:06:24;;;;;;;14.00;12.32;;;;;;;10.97;100.00;101731.00;5132823;28;20095;-82
2023/09/15 01:08:50;;;;;;;15.80;13.38;;;;;;;10.91;100.00;101722.94;5132670;28;20055;-82
2023/09/15 01:11:15;;;;;;;15.52;12.60;;;;;;;10.88;100.00;101721.50;5131893;28;20111;-84
2023/09/15 01:13:41;;;;;;;17.35;13.95;;;;;;;10.82;100.00;101720.44;5114030;28;20042;-84
2023/09/15 01:16:15;;;;;;;16.30;14.23;;;;;;;10.85;100.00;101728.06;5113627;28;20100;-83
2023/09/15 01:18:57;;;;;;;16.05;13.20;;;;;;;10.82;100.00;101716.91;5132476;28;20490;-83
2023/09/15 01:22:12;;;;;;;19.03;15.67;;;;;;;10.81;100.00;101717.94;5131696;28;20475;-85
2023/09/15 01:25:09;;;;;;;18.90;14.98;;;;;;;10.73;100.00;101716.25;5132619;28;20341;-84
2023/09/15 01:27:46;;;;;;;20.90;17.05;;;;;;;10.70;100.00;101713.13;5131713;28;20071;-84
2023/09/15 01:30:12;;;;;;;21.38;15.38;;;;;;;10.65;100.00;101705.66;5132406;28;20061;-86
2023/09/15 01:32:38;;;;;;;16.98;14.85;;;;;;;10.65;100.00;101711.00;5132739;28;20061;-87
2023/09/15 01:38:25;;;;;;;13.10;10.88;;;;;;;10.67;100.00;101697.44;5132808;27;20041;-85
2023/09/15 01:40:50;;;;;;;12.80;11.50;;;;;;;10.62;100.00;101695.34;5131604;28;20547;-85
2023/09/15 01:43:15;;;;;;;13.98;12.00;;;;;;;10.60;100.00;101700.06;5132138;28;20265;-86
2023/09/15 01:45:40;;;;;;;15.73;12.82;;;;;;;10.59;100.00;101698.41;5131508;28;20400;-85
2023/09/15 01:48:07;;;;;;;16.70;13.55;;;;;;;10.54;100.00;101700.84;5113600;28;20041;-85
2023/09/15 01:50:34;;;;;;;21.98;16.40;;;;;;;10.49;100.00;101689.91;5113779;28;20111;-86
2023/09/15 01:52:59;;;;;;;24.25;16.52;;;;;;;10.46;100.00;101690.28;5131168;28;20035;-86
2023/09/15 01:55:26;;;;;;;15.77;14.02;;;;;;;10.45;100.00;101697.50;5113786;28;20031;-85
2023/09/15 01:57:52;;;;;;;20.70;15.77;;;;;;;10.37;100.00;101694.91;5130920;28;20066;-83
2023/09/15 02:00:17;;;;;;;18.80;16.42;;;;;;;10.26;100.00;101695.44;5113596;28;20074;-85
2023/09/15 02:02:42;;;;;;;18.42;15.30;;;;;;;10.25;100.00;101688.44;5131472;28;20511;-85
2023/09/15 02:05:14;;;;;;;20.55;16.92;;;;;;;10.27;100.00;101688.25;5131643;28;20036;-85
2023/09/15 02:07:39;;;;;;;18.95;15.98;;;;;;;10.23;100.00;101683.28;5113766;28;20020;-85
2023/09/15 02:13:26;;;;;;;17.95;14.20;;;;;;;10.21;100.00;101693.34;5132311;27;20046;-84
2023/09/15 02:15:53;;;;;;;17.47;14.87;;;;;;;10.19;100.00;101697.19;5112688;28;20114;-83
2023/09/15 02:18:18;;;;;;;17.67;14.95;;;;;;;10.15;100.00;101694.09;5131653;28;20276;-86
2023/09/15 02:20:44;;;;;;;17.90;15.55;;;;;;;10.08;100.00;101674.47;5131086;28;20044;-85
2023/09/15 02:26:31;;;;;;;18.88;15.30;;;;;;;10.18;100.00;101693.69;5132079;27;20458;-85
2023/09/15 02:28:56;;;;;;;21.92;17.10;;;;;;;10.16;100.00;101682.38;5113558;28;20031;-85
2023/09/15 02:31:22;;;;;;;20.55;15.85;;;;;;;10.18;100.00;101683.00;5131484;28;20115;-85
2023/09/15 02:33:47;;;;;;;20.88;16.35;;;;;;;10.16;100.00;101674.34;5131093;28;20035;-85
2023/09/15 02:36:12;;;;;;;18.83;16.80;;;;;;;10.14;100.00;101671.06;5131467;28;20506;-85
2023/09/15 02:38:38;;;;;;;17.97;14.83;;;;;;;10.11;100.00;101671.41;5131045;28;20050;-85
2023/09/15 02:41:03;;;;;;;16.67;13.23;;;;;;;10.14;100.00;101676.41;5112997;28;20836;-85
2023/09/15 02:43:28;;;;;;;13.80;11.73;;;;;;;10.08;100.00;101679.81;5131175;28;20016;-85
2023/09/15 02:45:54;;;;;;;13.65;11.43;;;;;;;10.03;100.00;101671.53;5131107;28;20042;-82
2023/09/15 02:48:19;;;;;;;12.93;11.57;;;;;;;10.02;100.00;101672.56;5113127;28;20034;-83
2023/09/15 02:54:06;;;;;;;16.50;13.38;;;;;;;9.94;100.00;101680.69;5134781;28;20775;-83
2023/09/15 02:56:31;;;;;;;16.58;13.07;;;;;;;9.84;100.00;101666.81;5134114;28;20039;-83
2023/09/15 02:58:57;;;;;;;19.20;14.23;;;;;;;9.85;100.00;101671.16;5116256;28;20126;-84
2023/09/15 03:04:47;;;;;;;21.55;16.08;;;;;;;9.89;100.00;101673.25;5135280;27;20122;-83
2023/09/15 03:07:13;;;;;;;21.42;16.42;;;;;;;9.91;100.00;101673.06;5133929;28;20024;-85
2023/09/15 03:09:38;;;;;;;18.33;15.40;;;;;;;9.84;100.00;101672.16;5134627;28;20096;-83
2023/09/15 03:12:04;;;;;;;13.63;11.82;;;;;;;9.80;100.00;101668.19;5134400;28;20031;-85
2023/09/15 03:14:29;;;;;;;19.08;14.57;;;;;;;9.71;100.00;101664.00;5133837;28;20499;-83
2023/09/15 03:16:55;;;;;;;25.27;18.20;;;;;;;9.75;100.00;101673.28;5116090;28;20505;-85
2023/09/15 03:19:21;;;;;;;20.25;16.00;;;;;;;9.74;100.00;101663.63;5133668;28;20142;-85
2023/09/15 03:21:46;;;;;;;27.45;18.10;;;;;;;9.77;100.00;101664.06;5134831;28;20027;-85
2023/09/15 03:27:33;;;;;;;21.27;16.73;;;;;;;9.76;100.00;101656.22;5134996;27;20046;-86
2023/09/15 03:29:58;;;;;;;18.67;15.57;;;;;;;9.78;100.00;101659.53;5134538;28;20027;-84
2023/09/15 03:35:45;;;;;;;16.60;13.55;;;;;;;9.78;100.00;101654.19;5134705;28;20280;-85
2023/09/15 03:38:11;;;;;;;17.07;13.33;;;;;;;9.72;100.00;101649.63;5133727;28;20487;-86
2023/09/15 03:40:36;;;;;;;15.15;13.32;;;;;;;9.73;100.00;101645.94;5135221;28;20321;-86
2023/09/15 03:43:02;;;;;;;19.10;14.20;;;;;;;9.74;100.00;101653.75;5133458;28;20082;-84
2023/09/15 03:45:28;;;;;;;17.25;14.45;;;;;;;9.72;100.00;101653.13;5115817;28;20031;-84
2023/09/15 03:51:15;;;;;;;21.20;15.95;;;;;;;9.68;100.00;101645.69;5134287;28;20034;-86
2023/09/15 03:53:41;;;;;;;15.32;12.05;;;;;;;9.64;100.00;101645.22;5115820;28;20031;-87
2023/09/15 03:56:06;;;;;;;14.90;12.40;;;;;;;9.61;100.00;101643.75;5114958;28;20232;-83
2023/09/15 04:01:54;;;;;;;12.68;9.85;;;;;;;9.51;100.00;101645.06;5132644;28;20073;-82
2023/09/15 04:04:19;;;;;;;12.13;10.15;;;;;;;9.46;100.00;101637.63;5115093;28;20059;-84
2023/09/15 04:06:44;;;;;;;14.67;11.83;;;;;;;9.43;100.00;101642.50;5114814;28;20039;-85
2023/09/15 04:09:10;;;;;;;13.57;12.07;;;;;;;9.35;100.00;101635.44;5115154;28;20624;-85
2023/09/15 04:11:36;;;;;;;14.13;12.30;;;;;;;9.39;100.00;101630.53;5115078;28;20280;-85
2023/09/15 04:14:03;;;;;;;13.85;12.00;;;;;;;9.37;100.00;101640.59;5114697;28;20087;-85
2023/09/15 04:16:28;;;;;;;15.50;13.45;;;;;;;9.39;100.00;101642.06;5133445;28;20037;-85
2023/09/15 04:18:53;;;;;;;15.82;13.23;;;;;;;9.39;100.00;101641.22;5132726;28;20047;-84
2023/09/15 04:21:18;;;;;;;17.30;12.30;;;;;;;9.35;100.00;101638.09;5133219;28;20021;-85
2023/09/15 04:23:44;;;;;;;14.10;12.30;;;;;;;9.35;100.00;101629.28;5114374;28;20292;-85
2023/09/15 04:26:09;;;;;;;14.98;12.60;;;;;;;9.32;100.00;101631.31;5114819;28;20277;-85
2023/09/15 04:28:34;;;;;;;13.73;12.03;;;;;;;9.35;100.00;101635.44;5133701;28;20038;-85
2023/09/15 04:30:59;;;;;;;15.90;13.90;;;;;;;9.36;100.00;101629.09;5132285;28;20648;-83
2023/09/15 04:33:25;;;;;;;17.05;13.75;;;;;;;9.35;100.00;101630.09;5133347;28;20032;-85
2023/09/15 04:39:13;;;;;;;17.52;13.70;;;;;;;9.38;100.00;101631.56;5133376;28;20066;-86
2023/09/15 04:41:38;;;;;;;15.27;12.05;;;;;;;9.32;100.00;101622.47;5114391;28;20384;-87
2023/09/15 04:47:36;;;;;;;15.55;12.23;;;;;;;9.35;100.00;101632.75;5133189;28;20073;-86
2023/09/15 04:50:02;;;;;;;17.95;12.95;;;;;;;9.32;100.00;101633.97;5133409;28;20045;-85
2023/09/15 04:55:50;;;;;;;20.45;13.93;;;;;;;9.36;100.00;101629.09;5133253;28;20050;-87
2023/09/15 04:58:16;;;;;;;15.05;12.68;;;;;;;9.28;100.00;101632.69;5114929;28;20076;-86
2023/09/15 05:00:41;;;;;;;20.55;14.38;;;;;;;9.28;100.00;101642.53;5113664;28;20035;-86
2023/09/15 05:06:29;;;;;;;14.27;11.52;;;;;;;9.23;100.00;101634.22;5132908;27;20038;-85
2023/09/15 05:12:16;;;;;;;20.02;13.20;;;;;;;9.29;100.00;101641.53;5132654;27;20722;-84
2023/09/15 05:18:06;;;;;;;17.33;12.23;;;;;;;9.34;100.00;101636.44;5134043;27;20543;-88
2023/09/15 05:23:53;;;;;;;14.52;11.80;;;;;;;9.35;100.00;101640.78;5133623;28;20061;-84
2023/09/15 05:29:40;;;;;;;17.75;13.95;;;;;;;9.67;100.00;101662.72;5132152;28;20096;-84
2023/09/15 05:35:28;;;;;;;19.17;13.48;;;;;;;10.44;100.00;101653.06;5132893;28;20479;-86
2023/09/15 05:41:21;;;;;;;15.77;11.45;;;;;;;11.35;100.00;101656.53;5132406;28;20038;-83
2023/09/15 05:47:08;;;;;;;15.02;11.82;;;;;;;12.33;100.00;101657.00;5132312;27;20095;-85
2023/09/15 05:52:55;;;;;;;15.52;10.90;;;;;;;13.17;100.00;101654.47;5132459;28;20150;-84
2023/09/15 05:58:42;;;;;;;12.75;10.27;;;;;;;14.29;100.00;101666.53;5132863;27;20177;-83
2023/09/15 06:01:07;;;;;;;13.57;10.03;;;;;;;14.78;100.00;101670.31;5131093;28;20043;-83
2023/09/15 06:06:56;;;;;;;11.45;9.70;;;;;;;15.82;100.00;101666.63;5132546;28;20268;-84
2023/09/15 06:16:07;;;;;;;11.50;9.75;;;;;;;17.12;100.00;101652.28;5132146;28;20501;-83
2023/09/15 06:18:33;;;;;;;11.52;9.07;;;;;;;17.56;100.00;101661.56;5112867;28;20036;-85
2023/09/15 06:24:20;;;;;;;14.55;10.30;;;;;;;18.19;100.00;101663.31;5133258;27;20165;-79
2023/09/15 06:26:47;;;;;;;14.57;9.43;;;;;;;18.72;100.00;101678.31;5116704;28;20047;-82
2023/09/15 06:29:15;;;;;;;13.65;9.55;;;;;;;19.04;100.00;101643.25;5134530;28;20277;-84
2023/09/15 06:35:02;;;;;;;12.88;9.43;;;;;;;20.66;95.56;101672.16;5135990;27;20096;-88
2023/09/15 06:40:49;;;;;;;11.88;8.80;;;;;;;21.59;88.41;101663.41;5135563;27;20039;-86
2023/09/15 06:43:15;;;;;;;14.03;9.47;;;;;;;21.96;86.83;101672.22;5134659;28;20043;-85
2023/09/15 06:45:40;;;;;;;11.82;9.20;;;;;;;22.32;83.61;101668.75;5116848;28;20296;-85
2023/09/15 06:48:05;;;;;;;10.50;9.20;;;;;;;22.68;83.15;101664.09;5134572;28;20043;-84
2023/09/15 06:50:31;;;;;;;12.60;10.07;;;;;;;23.00;80.85;101658.34;5135417;28;20646;-85
2023/09/15 06:52:57;;;;;;;10.75;8.52;;;;;;;23.28;77.51;101667.78;5135340;28;20079;-85
2023/09/15 06:55:22;;;;;;;11.18;8.40;;;;;;;23.55;75.86;101654.56;5134628;28;20042;-87
2023/09/15 06:57:48;;;;;;;10.40;8.90;;;;;;;24.01;74.35;101657.06;5116888;28;20023;-85
2023/09/15 07:00:13;;;;;;;11.10;8.27;;;;;;;24.12;71.99;101660.53;5134286;28;20043;-86
2023/09/15 07:02:38;;;;;;;9.55;8.18;;;;;;;24.12;69.70;101655.88;5135339;28;20050;-83
2023/09/15 07:08:25;;;;;;;11.25;8.63;;;;;;;24.03;69.58;101657.59;5135344;27;20775;-84
2023/09/15 07:10:51;;;;;;;11.13;7.83;;;;;;;24.27;68.46;101652.19;5134996;28;20027;-85
2023/09/15 07:13:17;;;;;;;14.60;9.00;;;;;;;24.44;67.93;101658.09;5116046;28;20031;-84
2023/09/15 07:15:44;;;;;;;12.32;9.27;;;;;;;24.25;68.26;101660.69;5135001;28;20023;-84
2023/09/15 07:18:48;;;;;;;10.90;8.10;;;;;;;24.45;72.82;101653.44;5141262;28;20491;-90
2023/09/15 07:28:04;;;;;;;13.00;8.55;;;;;;;22.04;79.15;101651.03;5135028;28;20038;-85
2023/09/15 07:30:30;;;;;;;10.75;8.48;;;;;;;22.17;77.95;101642.31;5115484;28;20039;-82
2023/09/15 07:36:17;;;;;;;11.20;9.02;;;;;;;21.45;81.81;101638.63;5134538;27;20071;-81
2023/09/15 07:42:08;;;;;;;11.38;9.00;;;;;;;21.80;80.77;101640.63;5134614;27;20346;-86
2023/09/15 07:47:55;;;;;;;10.10;8.90;;;;;;;22.32;78.99;101633.34;5134714;28;20034;-87
2023/09/15 07:50:20;;;;;;;10.27;9.15;;;;;;;21.52;82.01;101631.00;5116030;28;20387;-85
2023/09/15 07:52:46;;;;;;;11.03;9.37;;;;;;;20.77;86.63;101626.81;5133453;28;20046;-84
2023/09/15 07:55:12;;;;;;;12.07;8.88;;;;;;;20.36;89.74;101623.81;5134115;28;20298;-83
2023/09/15 07:57:39;;;;;;;12.60;9.23;;;;;;;20.58;88.32;101626.44;5115262;28;20508;-83
2023/09/15 08:00:10;;;;;;;12.52;9.35;;;;;;;21.22;85.58;101633.59;5115373;28;20035;-84
2023/09/15 08:02:36;;;;;;;11.27;8.85;;;;;;;22.05;80.21;101630.88;5134168;28;20026;-86
2023/09/15 08:05:02;;;;;;;10.25;8.82;;;;;;;22.79;77.80;101630.25;5136211;27;20122;-83
2023/09/15 08:07:27;;;;;;;13.27;9.00;;;;;;;22.68;78.68;101625.94;5134047;28;20110;-85
2023/09/15 08:09:53;;;;;;;12.87;8.97;;;;;;;22.73;76.86;101615.00;5114987;28;20080;-85
2023/09/15 08:12:19;;;;;;;13.15;8.93;;;;;;;23.83;74.16;101636.69;5133886;28;20283;-83
2023/09/15 08:14:46;;;;;;;11.30;8.45;;;;;;;25.04;67.61;101638.66;5115442;28;20068;-82
2023/09/15 08:17:12;;;;;;;12.73;8.90;;;;;;;26.42;64.91;101627.38;5133035;28;20050;-82
2023/09/15 08:19:37;;;;;;;11.10;8.45;;;;;;;27.36;60.05;101633.22;5115496;28;20023;-85
2023/09/15 08:22:02;;;;;;;9.50;8.50;;;;;;;28.29;57.75;101639.06;5133176;28;20123;-84
2023/09/15 08:27:49;;;;;;;9.43;7.85;;;;;;;29.21;52.79;101640.16;5133875;28;20064;-83
2023/09/15 08:30:15;;;;;;;9.70;8.70;;;;;;;29.13;52.41;101640.13;5133441;28;20036;-84
2023/09/15 08:32:41;;;;;;;9.73;7.78;;;;;;;29.25;51.22;101637.56;5133552;28;20341;-84
2023/09/15 08:35:07;;;;;;;9.77;8.00;;;;;;;28.78;52.38;101639.16;5132739;28;20042;-85
2023/09/15 08:37:32;;;;;;;10.68;8.48;;;;;;;29.04;51.69;101633.78;5114987;28;20494;-83
2023/09/15 08:39:57;;;;;;;9.83;8.30;;;;;;;29.52;49.85;101629.06;5132519;28;20065;-84
2023/09/15 08:42:27;;;;;;;10.20;8.27;;;;;;;30.01;50.05;101628.88;5114950;28;20084;-83
2023/09/15 08:44:53;;;;;;;12.27;8.02;;;;;;;30.48;47.03;101627.84;5132830;28;20641;-84
2023/09/15 08:50:41;;;;;;;10.85;7.97;;;;;;;30.79;46.06;101629.53;5133567;28;20099;-86
2023/09/15 08:53:07;;;;;;;10.98;7.97;;;;;;;30.57;46.03;101627.00;5114805;28;20455;-83
2023/09/15 08:55:33;;;;;;;9.32;8.02;;;;;;;30.56;46.46;101620.66;5133077;28;20459;-82
2023/09/15 08:58:00;;;;;;;9.40;7.50;;;;;;;30.21;45.27;101614.44;5132338;28;20053;-84
2023/09/15 09:00:27;;;;;;;11.18;8.20;;;;;;;29.27;46.86;101614.06;5114392;28;20375;-83
2023/09/15 09:02:52;;;;;;;10.07;8.18;;;;;;;27.92;50.39;101604.47;5113950;28;20055;-84
2023/09/15 09:05:18;;;;;;;11.97;8.80;;;;;;;26.53;56.99;101604.13;5114613;28;20075;-82
2023/09/15 09:07:45;;;;;;;10.27;7.85;;;;;;;25.74;59.19;101600.50;5132923;28;20363;-84
2023/09/15 09:10:11;;;;;;;10.23;8.77;;;;;;;25.08;61.87;101599.44;5134836;27;20065;-85
2023/09/15 09:12:36;;;;;;;10.55;8.55;;;;;;;24.29;65.71;101611.78;5114607;28;20526;-83
2023/09/15 09:15:01;;;;;;;12.47;8.70;;;;;;;23.49;69.23;101601.91;5131853;28;20065;-83
2023/09/15 09:17:28;;;;;;;12.30;9.02;;;;;;;23.05;76.00;101607.28;5114564;28;20304;-85
2023/09/15 09:19:53;;;;;;;12.95;9.18;;;;;;;22.62;75.74;101594.31;5114576;28;20034;-84
2023/09/15 09:22:19;;;;;;;10.53;8.60;;;;;;;22.41;75.83;101599.78;5132470;28;20036;-86
2023/09/15 09:24:52;;;;;;;10.85;7.95;;;;;;;21.95;80.97;101596.22;5133450;28;20281;-85
2023/09/15 09:27:17;;;;;;;12.43;8.10;;;;;;;21.81;80.47;101590.50;5114472;28;20535;-83
2023/09/15 09:29:43;;;;;;;12.93;8.87;;;;;;;21.58;86.51;101588.28;5133126;28;20027;-83
2023/09/15 09:32:13;;;;;;;12.50;8.47;;;;;;;21.59;84.60;101593.47;5133326;28;20277;-84
2023/09/15 09:34:38;;;;;;;13.88;8.98;;;;;;;21.36;88.62;101587.69;5133375;28;20330;-85
2023/09/15 09:37:04;;;;;;;13.02;9.25;;;;;;;21.39;85.86;101587.97;5115009;28;20035;-84
2023/09/15 09:39:29;;;;;;;9.63;7.60;;;;;;;21.43;82.94;101597.25;5133448;28;20035;-83
2023/09/15 09:41:55;;;;;;;14.25;8.50;;;;;;;21.17;85.50;101585.44;5133537;28;20043;-85
2023/09/15 09:44:20;;;;;;;10.70;8.50;;;;;;;21.10;88.51;101581.31;5133023;28;20043;-85
2023/09/15 09:46:45;;;;;;;10.13;8.07;;;;;;;21.10;85.54;101579.41;5132981;28;20460;-84
2023/09/15 09:49:12;;;;;;;10.70;8.27;;;;;;;21.06;86.36;101585.63;5133217;28;20055;-84
2023/09/15 09:51:38;;;;;;;10.23;7.82;;;;;;;20.88;87.74;101574.16;5134552;27;20035;-82
2023/09/15 09:54:06;;;;;;;10.15;7.63;;;;;;;20.94;91.83;101577.72;5132394;28;20080;-85
2023/09/15 09:56:32;;;;;;;12.40;8.18;;;;;;;20.99;87.36;101578.56;5132005;28;20142;-85
2023/09/15 09:59:10;;;;;;;11.07;7.57;;;;;;;20.99;90.12;101578.56;5135191;27;20024;-84
2023/09/15 10:01:36;;;;;;;11.43;8.23;;;;;;;21.11;93.82;101583.78;5135181;28;20023;-84
2023/09/15 10:04:05;;;;;;;11.52;8.05;;;;;;;21.11;93.66;101567.47;5136104;28;20034;-82
2023/09/15 10:06:31;;;;;;;12.35;8.65;;;;;;;21.12;94.43;101571.81;5135116;28;20031;-84
2023/09/15 10:08:59;;;;;;;13.63;8.00;;;;;;;21.14;91.77;101572.38;5117382;28;20031;-83
2023/09/15 10:11:25;;;;;;;12.27;8.38;;;;;;;21.11;91.68;101553.88;5136605;28;20023;-83
2023/09/15 10:13:51;;;;;;;10.93;7.63;;;;;;;21.15;89.96;101570.47;5114070;28;20490;-84
2023/09/15 10:16:17;;;;;;;15.05;8.40;;;;;;;21.24;92.74;101566.16;5118040;28;20019;-82
2023/09/15 10:18:44;;;;;;;11.48;8.10;;;;;;;21.23;94.15;101548.19;5134580;28;20050;-84
2023/09/15 10:21:10;;;;;;;12.00;8.10;;;;;;;21.29;90.56;101558.84;5116715;28;20042;-83
2023/09/15 10:23:35;;;;;;;9.90;7.53;;;;;;;21.52;89.38;101548.53;5135671;28;20019;-84
2023/09/15 10:26:04;;;;;;;13.73;8.40;;;;;;;22.22;92.00;101545.03;5116580;28;20039;-84
2023/09/15 10:31:52;;;;;;;12.05;8.27;;;;;;;22.84;79.39;101540.25;5135442;28;20092;-83
2023/09/15 10:37:43;;;;;;;9.48;6.75;;;;;;;23.28;78.26;101544.97;5135803;27;20050;-83
2023/09/15 10:43:31;;;;;;;9.88;6.88;;;;;;;22.47;85.25;101525.09;5135540;28;20065;-84
2023/09/15 10:49:20;;;;;;;10.55;6.18;;;;;;;22.45;81.33;101532.72;5134705;28;20045;-84
2023/09/15 10:51:52;;;;;;;9.05;6.53;;;;;;;22.20;85.72;101527.34;5135229;28;20525;-83
2023/09/15 10:57:39;;;;;;;10.23;7.25;;;;;;;21.75;90.48;101520.81;5134997;27;20471;-85
2023/09/15 11:00:08;;;;;;;10.00;6.72;;;;;;;21.76;84.33;101516.19;5116493;28;20058;-82
2023/09/15 11:02:39;;;;;;;10.55;6.63;;;;;;;22.00;88.11;101511.00;5134375;28;20062;-82
2023/09/15 11:05:05;;;;;;;9.45;5.82;;;;;;;22.13;84.80;101505.00;5133487;28;20332;-83
2023/09/15 11:07:33;;;;;;;9.98;5.70;;;;;;;22.39;78.44;101503.06;5133900;28;20066;-84
2023/09/15 11:09:58;;;;;;;9.02;6.40;;;;;;;22.57;81.09;101505.19;5136322;27;20030;-81
2023/09/15 11:12:24;;;;;;;9.87;6.30;;;;;;;22.38;82.89;101502.22;5137207;28;20034;-83
2023/09/15 11:14:49;;;;;;;8.80;5.75;;;;;;;22.21;86.14;101501.72;5115777;28;20364;-84
2023/09/15 11:17:17;;;;;;;11.17;6.80;;;;;;;22.24;81.56;101499.25;5133362;28;20027;-84
2023/09/15 11:19:43;;;;;;;9.95;6.03;;;;;;;22.55;82.27;101500.00;5115655;28;20309;-84
2023/09/15 11:25:32;;;;;;;12.07;6.63;;;;;;;22.88;78.48;101480.53;5134493;28;20100;-81
2023/09/15 11:31:20;;;;;;;10.10;5.78;;;;;;;23.04;76.04;101488.34;5134693;27;20050;-82
2023/09/15 11:33:46;;;;;;;9.23;5.82;;;;;;;23.23;79.72;101491.25;5134350;28;20471;-82
2023/09/15 11:36:13;;;;;;;10.50;5.47;;;;;;;23.22;76.05;101492.34;5134718;28;20432;-80
2023/09/15 11:42:09;;;;;;;7.38;5.35;;;;;;;23.28;78.20;101490.38;5134479;28;20525;-82
2023/09/15 11:44:35;;;;;;;10.05;6.25;;;;;;;23.60;74.30;101493.47;5133870;28;20542;-80
2023/09/15 11:47:01;;;;;;;8.23;5.45;;;;;;;23.91;73.28;101491.28;5134214;28;20034;-82
2023/09/15 11:49:28;;;;;;;8.57;5.53;;;;;;;23.73;76.72;101483.81;5133339;28;20553;-80
2023/09/15 11:51:56;;;;;;;6.25;4.95;;;;;;;24.39;75.88;101478.50;5133920;28;20066;-80
2023/09/15 11:54:22;;;;;;;10.75;5.70;;;;;;;25.30;68.20;101481.16;5134081;28;20106;-82
2023/09/15 12:00:10;;;;;;;8.55;6.00;;;;;;;25.75;64.29;101473.34;5134432;28;20078;-82
2023/09/15 12:06:00;;;;;;;9.55;4.95;;;;;;;24.51;70.34;101466.34;5136921;28;20037;-81
2023/09/15 12:08:27;;;;;;;8.20;4.38;;;;;;;24.17;68.83;101467.25;5134766;28;20047;-82
2023/09/15 12:10:52;;;;;;;5.70;4.15;;;;;;;23.98;71.65;101452.69;5134804;28;20038;-83
2023/09/15 12:16:43;;;;;;;6.65;4.57;;;;;;;23.82;69.19;101451.22;5134690;27;20118;-83
2023/09/15 12:19:10;;;;;;;7.30;5.38;;;;;;;23.98;66.21;101450.75;5114678;28;20043;-82
2023/09/15 12:24:58;;;;;;;8.00;4.30;;;;;;;24.68;67.35;101445.63;5134540;28;20027;-82
2023/09/15 12:27:25;;;;;;;6.45;3.38;;;;;;;25.07;64.04;101451.94;5134158;28;20463;-85
2023/09/15 12:29:50;;;;;;;6.00;3.50;;;;;;;25.86;62.35;101445.47;5133004;28;20043;-85
2023/09/15 12:32:16;;;;;;;5.40;3.20;;;;;;;26.97;56.58;101440.75;5118351;28;20042;-82
2023/09/15 12:34:42;;;;;;;5.97;3.25;;;;;;;27.68;51.38;101450.03;5136630;28;20629;-79
2023/09/15 12:37:08;;;;;;;5.05;3.10;;;;;;;28.01;49.86;101456.03;5136910;28;20043;-82
2023/09/15 12:39:34;;;;;;;4.60;3.17;;;;;;;28.19;47.87;101448.69;5133660;28;20023;-78
2023/09/15 12:42:05;;;;;;;4.27;2.80;;;;;;;28.41;49.22;101448.63;5132348;28;20130;-80
2023/09/15 12:44:31;;;;;;;4.72;3.03;;;;;;;28.20;47.07;101447.53;5115076;28;20463;-80
2023/09/15 12:50:18;;;;;;;6.28;3.00;;;;;;;30.19;45.04;101449.19;5133302;27;20037;-77
2023/09/15 12:56:05;;;;;;;5.13;3.05;;;;;;;30.09;44.17;101435.78;5133319;28;20072;-77
2023/09/15 13:01:56;;;;;;;6.18;3.47;;;;;;;29.13;46.70;101426.06;5132972;27;20124;-79
2023/09/15 13:04:23;;;;;;;9.07;2.80;;;;;;;28.19;50.26;101416.47;5133124;28;20019;-78
2023/09/15 13:10:11;;;;;;;4.82;3.00;;;;;;;28.84;49.89;101407.41;5133280;28;20533;-77
2023/09/15 13:12:38;;;;;;;7.53;3.50;;;;;;;29.41;46.23;101404.47;5113864;28;20380;-76
2023/09/15 13:15:04;;;;;;;7.22;3.08;;;;;;;30.02;46.44;101405.09;5131568;28;20077;-80
2023/09/15 13:20:51;;;;;;;7.10;3.10;;;;;;;29.15;45.84;101398.97;5133083;28;20042;-78
2023/09/15 13:23:16;;;;;;;4.67;2.77;;;;;;;29.11;47.49;101399.97;5113648;28;20023;-78
2023/09/15 13:25:42;;;;;;;3.90;2.97;;;;;;;28.97;45.30;101392.69;5132539;28;20373;-77
2023/09/15 13:31:29;;;;;;;8.45;3.95;;;;;;;27.23;51.12;101388.81;5132901;28;20045;-76
2023/09/15 13:33:55;;;;;;;5.97;3.42;;;;;;;27.19;52.57;101374.91;5132319;27;20034;-76
2023/09/15 13:36:21;;;;;;;5.97;3.80;;;;;;;27.01;50.92;101373.16;5131861;28;20058;-76
2023/09/15 13:42:07;;;;;;;5.93;3.72;;;;;;;25.51;59.99;101366.63;5132649;27;20148;-78
2023/09/15 13:44:33;;;;;;;5.30;3.20;;;;;;;24.92;58.57;101368.94;5132705;28;20110;-79
2023/09/15 13:46:58;;;;;;;7.50;3.70;;;;;;;24.45;62.69;101363.59;5132238;28;20031;-79
2023/09/15 13:49:23;;;;;;;6.97;3.73;;;;;;;24.25;62.31;101360.00;5131502;28;20467;-77
2023/09/15 13:55:10;;;;;;;5.47;3.65;;;;;;;24.22;67.18;101357.03;5132274;28;20123;-77
2023/09/15 14:01:01;;;;;;;3.70;3.30;;;;;;;23.89;66.51;101364.28;5132261;28;20042;-78
2023/09/15 14:06:48;;;;;;;3.97;3.53;;;;;;;23.31;66.97;101358.81;5132496;27;20096;-78
2023/09/15 14:09:14;;;;;;;8.37;4.30;;;;;;;23.12;70.47;101345.84;5132177;28;20027;-78
2023/09/15 14:15:02;;;;;;;5.72;3.30;;;;;;;23.02;69.50;101359.59;5132255;28;20073;-76
2023/09/15 14:20:49;;;;;;;5.13;3.22;;;;;;;23.36;72.50;101347.84;5132513;28;20502;-78
2023/09/15 14:23:15;;;;;;;6.53;3.38;;;;;;;23.41;68.43;101351.34;5113550;28;20023;-77
2023/09/15 14:25:40;;;;;;;6.00;3.30;;;;;;;23.39;71.47;101356.25;5131103;28;20466;-77
2023/09/15 14:28:07;;;;;;;7.13;3.33;;;;;;;23.34;71.18;101348.13;5131912;28;20030;-77
2023/09/15 14:30:32;;;;;;;5.10;3.42;;;;;;;23.26;74.07;101347.94;5130968;28;20739;-78
2023/09/15 14:36:19;;;;;;;6.20;3.70;;;;;;;23.15;72.03;101347.22;5131592;27;20058;-79
2023/09/15 14:48:17;;;;;;;4.72;3.33;;;;;;;22.49;74.66;101313.00;5136074;28;20045;-80
2023/09/15 14:50:43;;;;;;;5.27;3.60;;;;;;;22.42;77.67;101317.16;5134197;28;20122;-81
2023/09/15 14:53:08;;;;;;;5.00;3.40;;;;;;;22.48;74.64;101316.03;5135675;28;20737;-80
2023/09/15 14:55:34;;;;;;;5.20;2.90;;;;;;;22.49;75.83;101321.19;5116046;28;20035;-79